02:30 MTB Giessenbach - Bauernwald - Seefeld - Sagl - Fiecht - Gruenberglift - Arzkasten - Untermieming - Moetz
Ort Giessenbach Datum 15.06.2017 15:16:24
Kategorie MTB
Distanz 56,15 Kilometer Steigung 926,0 Meter Gefälle -1.255,0 Meter
Gesamt Zeit 02:33:07 Aktiv 02:30:14 Pause 00:02:53
Durchs. Tempo 22,4 km/h Tempo max. 68,4 km/h Tempo min. 5,5 km/h
Kalorien 0 Durchs. HF 116 BPM HF max. 151 BPM
Wetter 28 °C PartClouds Min/Max: 26,0 °C/30,7 °C; Druck: 1013,7 mbar; Rel. Feuchte: 47,8%; Taupunkt: 17,0 °C; Windgeschwindigkeit: 9,4 km/h; Niederschlag: 0,0mm
Ausrüstung Bontrager - Race X Lite MTB
BMC - Teamelite 02 XT 2016 XL
Notiz Giessenbach - Bauernwald - Seefeld - Sagl - Fiecht - Gruenberglift - Arzkasten - Untermieming - Moetz ... super Wetter, warm, windig - recht locker ... garmin connect
Splits
Distanz (km) Gesamt Zeit Split Zeit Split Tempo Split Tempo Höhenprofil (m)
1,00 00:02:26 00:02:26 00:02:27 24,6 0,00
2,00 00:05:15 00:02:48 00:02:49 21,3 18,62
3,00 00:07:24 00:02:09 00:02:09 27,9 1,47
4,00 00:12:38 00:05:13 00:05:14 11,5 66,16
5,00 00:16:55 00:04:17 00:04:17 14,0 35,83
6,00 00:19:59 00:03:03 00:03:03 19,6 26,16
7,00 00:23:25 00:03:25 00:03:26 17,5 37,39
8,00 00:25:17 00:01:52 00:01:53 32,0 -16,47
9,00 00:27:43 00:02:25 00:02:25 24,7 15,95
10,00 00:29:29 00:01:46 00:01:47 33,7 -9,89
11,00 00:31:12 00:01:42 00:01:43 35,1 5,31
12,00 00:34:26 00:03:13 00:03:14 18,6 39,42
13,00 00:36:44 00:02:17 00:02:18 26,2 0,37
14,00 00:37:43 00:00:59 00:01:00 60,3 -93,30
15,00 00:38:46 00:01:02 00:01:03 57,5 -95,97
16,00 00:39:51 00:01:04 00:01:05 55,4 -80,77
17,00 00:40:50 00:00:59 00:00:59 61,0 -87,50
18,00 00:41:54 00:01:03 00:01:04 56,6 -89,48
19,00 00:42:51 00:00:57 00:00:58 62,6 -92,20
20,00 00:44:07 00:01:16 00:01:16 47,2 -57,36
21,00 00:45:44 00:01:36 00:01:36 37,3 -14,86
22,00 00:48:05 00:02:21 00:02:21 25,5 -4,56
23,00 00:50:16 00:02:11 00:02:11 27,4 4,35
24,00 00:52:32 00:02:16 00:02:16 26,4 1,59
25,00 00:54:50 00:02:18 00:02:18 26,1 0,38
26,00 00:59:33 00:04:42 00:04:42 12,8 63,02
27,00 01:04:49 00:05:16 00:05:16 11,4 46,14
28,00 01:08:34 00:03:44 00:03:45 16,0 22,46
29,00 01:13:34 00:04:59 00:05:00 12,0 52,78
30,00 01:17:25 00:03:51 00:03:52 15,5 18,92
31,00 01:20:54 00:03:28 00:03:29 17,2 15,88
32,00 01:23:31 00:02:36 00:02:37 23,0 3,82
33,00 01:26:48 00:03:16 00:03:16 18,3 18,46
34,00 01:29:35 00:02:47 00:02:48 21,5 12,72
35,00 01:31:33 00:01:57 00:01:57 30,7 2,51
36,00 01:34:04 00:02:31 00:02:31 23,8 18,63
37,00 01:38:15 00:04:10 00:04:11 14,4 3,70
38,00 01:43:25 00:05:10 00:05:10 11,6 43,01
39,00 01:48:11 00:04:45 00:04:46 12,6 52,31
40,00 01:52:19 00:04:08 00:04:08 14,5 39,05
41,00 01:55:55 00:03:35 00:03:36 16,7 28,15
42,00 02:00:43 00:04:48 00:04:48 12,5 54,32
43,00 02:03:38 00:02:54 00:02:54 20,6 -5,62
44,00 02:05:15 00:01:37 00:01:37 37,1 -67,11
45,00 02:06:53 00:01:38 00:01:38 36,6 -39,67
46,00 02:08:36 00:01:42 00:01:43 35,0 -45,25
47,00 02:11:29 00:02:53 00:02:53 20,8 -9,22
48,00 02:13:45 00:02:15 00:02:16 26,5 -36,58
49,00 02:16:18 00:02:32 00:02:33 23,6 -9,77
50,00 02:18:36 00:02:17 00:02:18 26,1 -4,16
51,00 02:20:48 00:02:12 00:02:13 27,1 -36,39
52,00 02:22:21 00:01:32 00:01:33 38,9 -40,08
53,00 02:24:25 00:02:03 00:02:04 29,1 -10,69
54,00 02:27:05 00:02:40 00:02:41 22,4 -29,68
55,00 02:28:40 00:01:34 00:01:35 38,1 -87,05
55,89 02:30:14 00:01:33 00:01:46 34,1 -42,21